createdAt,value
2024-03-27T00:02:00.836Z,98697.16
2024-03-27T00:07:03.741Z,98690.17
2024-03-27T00:12:07.194Z,98679.75
2024-03-27T00:17:10.112Z,98674.59
2024-03-27T00:22:12.960Z,98674.45
2024-03-27T00:27:15.768Z,98673.81
2024-03-27T00:32:18.885Z,98671.56
2024-03-27T00:37:21.905Z,98668.38
2024-03-27T00:42:25.403Z,98662.20
2024-03-27T00:47:28.306Z,98655.63
2024-03-27T00:52:31.210Z,98647.77
2024-03-27T00:57:34.115Z,98646.55
2024-03-27T01:02:37.018Z,98638.02
2024-03-27T01:07:40.330Z,98636.99
2024-03-27T01:12:43.240Z,98631.31
2024-03-27T01:17:47.570Z,98627.91
2024-03-27T01:22:50.579Z,98614.73
2024-03-27T01:27:53.587Z,98612.25
2024-03-27T01:32:58.342Z,98606.29
2024-03-27T01:38:01.233Z,98601.02
2024-03-27T01:43:04.455Z,98601.42
2024-03-27T01:48:08.808Z,98598.60
2024-03-27T01:53:14.747Z,98591.50
2024-03-27T01:58:18.178Z,98584.80
2024-03-27T02:03:21.083Z,98581.20
2024-03-27T02:08:24.090Z,98584.92
2024-03-27T02:13:27.000Z,98580.02
2024-03-27T02:18:29.911Z,98578.21
2024-03-27T02:23:40.787Z,98574.62
2024-03-27T02:28:46.869Z,98567.86
2024-03-27T02:33:49.771Z,98567.05
2024-03-27T02:38:52.778Z,98560.20
2024-03-27T02:43:55.985Z,98554.68
2024-03-27T02:48:58.997Z,98549.17
2024-03-27T02:54:01.902Z,98548.55
2024-03-27T02:59:05.315Z,98539.73
2024-03-27T03:04:08.226Z,98532.95
2024-03-27T03:09:11.025Z,98528.98
2024-03-27T03:14:13.830Z,98521.30
2024-03-27T03:19:17.140Z,98511.15
2024-03-27T03:24:19.941Z,98499.20
2024-03-27T03:29:22.845Z,98498.08
2024-03-27T03:34:25.851Z,98491.34
2024-03-27T03:39:28.761Z,98488.77
2024-03-27T03:44:31.664Z,98475.61
2024-03-27T03:49:34.661Z,98468.57
2024-03-27T03:54:37.678Z,98453.23
2024-03-27T03:59:40.790Z,98448.38
2024-03-27T04:04:43.687Z,98444.63
2024-03-27T04:09:46.692Z,98446.55
2024-03-27T04:14:53.090Z,98446.44
2024-03-27T04:20:00.348Z,98446.35
2024-03-27T04:25:04.812Z,98448.95
2024-03-27T04:30:08.838Z,98444.92
2024-03-27T04:35:11.770Z,98439.02
2024-03-27T04:40:14.669Z,98433.82
2024-03-27T04:45:17.579Z,98422.39
2024-03-27T04:50:20.483Z,98415.27
2024-03-27T04:55:23.479Z,98411.22
2024-03-27T05:00:26.691Z,98406.69
2024-03-27T05:05:29.491Z,98404.87
2024-03-27T05:10:32.501Z,98388.60
2024-03-27T05:15:35.310Z,98389.84
2024-03-27T05:20:38.175Z,98388.66
2024-03-27T05:25:41.113Z,98383.15
2024-03-27T05:30:44.013Z,98379.46
2024-03-27T05:35:46.916Z,98384.72
2024-03-27T05:40:49.824Z,98384.52
2024-03-27T05:45:53.685Z,98385.89
2024-03-27T05:50:57.677Z,98379.30
2024-03-27T05:56:00.895Z,98373.58
2024-03-27T06:01:04.206Z,98367.56
2024-03-27T06:06:07.418Z,98367.29
2024-03-27T06:11:10.528Z,98361.16
2024-03-27T06:16:13.742Z,98357.83
2024-03-27T06:21:18.476Z,98366.01
2024-03-27T06:26:22.826Z,98366.02
2024-03-27T06:31:27.063Z,98358.65
2024-03-27T06:36:30.072Z,98359.54
2024-03-27T06:41:35.938Z,98345.19
2024-03-27T06:46:39.163Z,98345.80
2024-03-27T06:51:42.180Z,98340.52
2024-03-27T06:56:45.786Z,98347.94
2024-03-27T07:01:49.117Z,98334.33
2024-03-27T07:06:52.097Z,98339.33
2024-03-27T07:11:55.313Z,98335.95
2024-03-27T07:16:58.209Z,98340.06
2024-03-27T07:22:01.480Z,98323.77
2024-03-27T07:27:04.639Z,98332.89
2024-03-27T07:32:08.463Z,98320.75
2024-03-27T07:37:11.470Z,98315.85
2024-03-27T07:42:14.328Z,98316.92
2024-03-27T07:47:17.281Z,98317.73
2024-03-27T07:52:20.180Z,98310.27
2024-03-27T07:57:23.497Z,98303.70
2024-03-27T08:02:26.601Z,98310.59
2024-03-27T08:07:29.576Z,98311.17
2024-03-27T08:12:32.646Z,98310.08
2024-03-27T08:17:35.724Z,98321.59
2024-03-27T08:22:40.847Z,98316.73
2024-03-27T08:27:43.750Z,98322.86
2024-03-27T08:32:46.688Z,98325.60
2024-03-27T08:37:54.890Z,98323.14
2024-03-27T08:43:03.717Z,98317.08
2024-03-27T08:48:06.856Z,98313.94
2024-03-27T08:53:09.682Z,98298.66
2024-03-27T08:58:12.631Z,98296.45
2024-03-27T09:03:15.589Z,98289.42
2024-03-27T09:08:18.590Z,98279.73
2024-03-27T09:13:21.699Z,98280.96
2024-03-27T09:18:24.601Z,98282.42
2024-03-27T09:23:30.909Z,98266.55
2024-03-27T09:28:33.790Z,98261.05
2024-03-27T09:33:36.825Z,98248.09
2024-03-27T09:38:39.807Z,98251.41
2024-03-27T09:43:45.448Z,98251.02
2024-03-27T09:48:51.147Z,98254.26
2024-03-27T09:53:54.049Z,98262.02
2024-03-27T09:58:58.701Z,98258.06
2024-03-27T10:04:01.812Z,98253.95
2024-03-27T10:09:08.034Z,98248.82
2024-03-27T10:14:13.656Z,98257.73
2024-03-27T10:19:16.564Z,98258.44
2024-03-27T10:24:19.891Z,98260.77
2024-03-27T10:29:22.780Z,98263.58
2024-03-27T10:34:25.632Z,98264.80
2024-03-27T10:39:33.196Z,98262.83
2024-03-27T10:44:37.238Z,98267.18
2024-03-27T10:49:42.157Z,98245.86
2024-03-27T10:54:46.669Z,98245.23
2024-03-27T10:59:55.778Z,98240.90
2024-03-27T11:05:02.894Z,98244.95
2024-03-27T11:10:06.467Z,98240.55
2024-03-27T11:15:11.453Z,98231.06
2024-03-27T11:20:15.596Z,98226.48
2024-03-27T11:25:23.458Z,98220.13
2024-03-27T11:30:28.546Z,98225.96
2024-03-27T11:35:32.377Z,98222.92
2024-03-27T11:40:35.735Z,98214.63
2024-03-27T11:45:39.058Z,98222.15
2024-03-27T11:50:43.032Z,98213.85
2024-03-27T11:55:54.095Z,98204.23
2024-03-27T12:01:00.426Z,98211.55
2024-03-27T12:06:05.455Z,98200.15
2024-03-27T12:11:11.716Z,98196.80
2024-03-27T12:16:15.121Z,98193.86
2024-03-27T12:21:17.992Z,98195.77
2024-03-27T12:26:23.852Z,98181.89
2024-03-27T12:31:29.334Z,98167.34
2024-03-27T12:36:34.366Z,98151.85
2024-03-27T12:41:37.370Z,98156.36
2024-03-27T12:46:40.277Z,98154.90
2024-03-27T12:51:43.195Z,98137.90
2024-03-27T12:56:46.264Z,98135.61
2024-03-27T13:01:49.409Z,98135.58
2024-03-27T13:06:52.341Z,98135.65
2024-03-27T13:11:55.422Z,98124.18
2024-03-27T13:16:58.624Z,98127.80
2024-03-27T13:22:02.150Z,98122.02
2024-03-27T13:27:05.970Z,98122.89
2024-03-27T13:32:11.966Z,98111.14
2024-03-27T13:37:15.928Z,98110.96
2024-03-27T13:42:19.091Z,98127.02
2024-03-27T13:47:22.105Z,98124.13
2024-03-27T13:52:25.202Z,98125.60
2024-03-27T13:57:28.318Z,98135.63
2024-03-27T14:02:31.378Z,98124.07
2024-03-27T14:07:35.139Z,98111.11
2024-03-27T14:12:38.357Z,98114.23
2024-03-27T14:17:41.681Z,98108.46
2024-03-27T14:22:46.985Z,98105.89
2024-03-27T14:27:51.715Z,98117.14
2024-03-27T14:32:54.783Z,98110.65
2024-03-27T14:37:57.791Z,98115.77
2024-03-27T14:43:00.895Z,98109.13
2024-03-27T14:48:04.645Z,98105.40
2024-03-27T14:53:08.021Z,98101.73
2024-03-27T14:58:10.944Z,98101.55
2024-03-27T15:03:14.986Z,98095.87
2024-03-27T15:08:21.153Z,98095.30
2024-03-27T15:13:24.362Z,98091.79
2024-03-27T15:18:27.680Z,98087.46
2024-03-27T15:23:30.892Z,98096.13
2024-03-27T15:28:34.224Z,98089.05
2024-03-27T15:33:37.518Z,98084.98
2024-03-27T15:38:40.330Z,98081.79
2024-03-27T15:43:43.527Z,98075.23
2024-03-27T15:48:46.637Z,98076.96
2024-03-27T15:53:49.645Z,98073.19
2024-03-27T15:58:52.960Z,98068.25
2024-03-27T16:03:58.648Z,98067.52
2024-03-27T16:09:05.012Z,98068.67
2024-03-27T16:14:07.923Z,98060.95
2024-03-27T16:19:10.824Z,98057.91
2024-03-27T16:24:14.043Z,98053.17
2024-03-27T16:29:16.936Z,98053.89
2024-03-27T16:34:19.849Z,98046.00
2024-03-27T16:39:25.848Z,98038.02
2024-03-27T16:44:35.658Z,98032.30
2024-03-27T16:49:38.927Z,98028.47
2024-03-27T16:54:45.591Z,98031.39
2024-03-27T16:59:48.596Z,98026.84
2024-03-27T17:04:51.516Z,98028.55
2024-03-27T17:09:55.569Z,98025.00
2024-03-27T17:14:58.847Z,98018.84
2024-03-27T17:20:01.980Z,98027.29
2024-03-27T17:25:05.533Z,98020.44
2024-03-27T17:30:09.027Z,98033.52
2024-03-27T17:35:12.007Z,98034.12
2024-03-27T17:40:15.421Z,98032.60
2024-03-27T17:45:18.321Z,98031.63
2024-03-27T17:50:21.242Z,98029.86
2024-03-27T17:55:24.643Z,98038.19
2024-03-27T18:00:28.502Z,98037.16
2024-03-27T18:05:31.370Z,98038.55
2024-03-27T18:10:34.493Z,98035.86
2024-03-27T18:15:38.572Z,98038.16
2024-03-27T18:20:42.869Z,98038.31
2024-03-27T18:25:45.857Z,98045.59
2024-03-27T18:30:58.062Z,98047.60
2024-03-27T18:36:01.422Z,98055.50
2024-03-27T18:41:04.519Z,98064.33
2024-03-27T18:46:07.616Z,98068.75
2024-03-27T18:51:10.534Z,98070.38
2024-03-27T18:56:13.547Z,98078.23
2024-03-27T19:01:16.542Z,98085.13
2024-03-27T19:06:19.746Z,98095.50
2024-03-27T19:11:27.986Z,98097.72
2024-03-27T19:16:38.621Z,98098.09
2024-03-27T19:21:41.479Z,98096.85
2024-03-27T19:26:44.774Z,98096.52
2024-03-27T19:31:47.882Z,98097.31
2024-03-27T19:36:51.844Z,98097.71
2024-03-27T19:41:55.029Z,98094.16
2024-03-27T19:46:59.488Z,98091.45
2024-03-27T19:52:14.442Z,98091.58
2024-03-27T19:57:21.760Z,98084.56
2024-03-27T20:02:24.981Z,98081.91
2024-03-27T20:07:31.208Z,98060.86
2024-03-27T20:12:35.284Z,98055.66
2024-03-27T20:17:38.307Z,98048.10
2024-03-27T20:22:41.404Z,98049.84
2024-03-27T20:27:44.303Z,98047.16
2024-03-27T20:32:47.204Z,98047.48
2024-03-27T20:37:50.085Z,98042.01
2024-03-27T20:42:53.017Z,98038.35
2024-03-27T20:47:55.922Z,98033.08
2024-03-27T20:52:59.075Z,98033.33
2024-03-27T20:58:02.138Z,98025.11
2024-03-27T21:03:06.052Z,98014.75
2024-03-27T21:08:09.284Z,98016.65
2024-03-27T21:13:12.177Z,98019.83
2024-03-27T21:18:15.188Z,98018.48
2024-03-27T21:23:18.208Z,98009.53
2024-03-27T21:28:21.342Z,97992.87
2024-03-27T21:33:24.630Z,97990.23
2024-03-27T21:38:27.929Z,97983.02
2024-03-27T21:43:31.472Z,97970.23
2024-03-27T21:48:34.998Z,97964.02
2024-03-27T21:53:37.871Z,97962.64
2024-03-27T21:58:40.625Z,97960.61
2024-03-27T22:03:43.578Z,97958.40
2024-03-27T22:08:46.480Z,97957.35
2024-03-27T22:13:50.114Z,97950.50
2024-03-27T22:18:53.148Z,97948.69
2024-03-27T22:23:56.527Z,97946.04
2024-03-27T22:28:59.537Z,97932.59
2024-03-27T22:34:02.473Z,97927.32
2024-03-27T22:39:05.343Z,97926.95
2024-03-27T22:44:08.250Z,97918.88
2024-03-27T22:49:11.180Z,97910.63
2024-03-27T22:54:15.493Z,97904.51
2024-03-27T22:59:18.408Z,97901.44
2024-03-27T23:04:21.647Z,97900.81
2024-03-27T23:09:24.518Z,97893.05
2024-03-27T23:14:27.411Z,97895.31
2024-03-27T23:19:30.317Z,97889.10
2024-03-27T23:24:33.321Z,97899.19
2024-03-27T23:29:36.128Z,97900.63
2024-03-27T23:34:39.028Z,97899.39
2024-03-27T23:39:41.830Z,97899.23
2024-03-27T23:44:44.732Z,97893.65
2024-03-27T23:49:47.640Z,97894.05
2024-03-27T23:54:50.540Z,97895.81
2024-03-27T23:59:54.679Z,97896.31
